Time;durP1;ratioP1;P1;durP2;ratioP2;P2;SDS_P1;SDS_P2;PMS_P1;PMS_P2;Temp;Humidity;BMP_temperature;BMP_pressure;BME280_temperature;BME280_humidity;BME280_pressure;Samples;Min_cycle;Max_cycle;Signal;HPM_P1;HPM_P2
2022/02/05 09:16:14;;;;;;;3.50;2.40;;;;;;;5.40;77.53;99510.34;5151217;27;20552;-84
2022/02/05 09:18:44;;;;;;;3.23;2.30;;;;;;;6.19;75.36;99550.75;5136037;27;39895;-85
2022/02/05 09:21:11;;;;;;;1.77;1.47;;;;;;;6.62;72.10;99547.50;5133066;27;42189;-83
2022/02/05 09:23:42;;;;;;;1.93;1.50;;;;;;;7.08;69.71;99555.44;5108859;27;41577;-84
2022/02/05 09:26:11;;;;;;;2.63;1.33;;;;;;;7.27;68.41;99558.25;5104790;27;42500;-87
2022/02/05 09:28:41;;;;;;;1.63;1.53;;;;;;;7.28;66.95;99544.19;5100492;27;39047;-82
2022/02/05 09:31:27;;;;;;;2.27;1.97;;;;;;;7.42;65.96;99578.75;5110841;27;40591;-86
2022/02/05 09:33:57;;;;;;;3.60;1.80;;;;;;;7.42;65.80;99573.47;5106494;27;41859;-85
2022/02/05 09:36:26;;;;;;;3.97;1.50;;;;;;;7.49;65.51;99569.69;5119717;27;42367;-85
2022/02/05 09:38:54;;;;;;;3.00;1.73;;;;;;;7.85;64.98;99570.03;5110977;27;40233;-84
2022/02/05 09:41:22;;;;;;;1.73;1.50;;;;;;;8.07;63.95;99562.09;5094493;27;40229;-85
2022/02/05 09:43:51;;;;;;;3.43;1.87;;;;;;;8.34;63.18;99580.38;5144209;27;41488;-84
2022/02/05 09:46:20;;;;;;;1.77;1.50;;;;;;;8.43;62.23;99574.72;5121313;27;42649;-86
2022/02/05 09:48:49;;;;;;;2.63;1.67;;;;;;;8.59;61.84;99581.06;5109703;27;39890;-84
2022/02/05 09:51:20;;;;;;;1.53;1.43;;;;;;;8.59;61.86;99570.50;5130203;27;42624;-83
2022/02/05 09:53:50;;;;;;;2.10;1.60;;;;;;;8.73;61.46;99594.53;5114252;27;42861;-85
2022/02/05 09:56:19;;;;;;;4.97;1.53;;;;;;;8.83;60.69;99600.28;5103108;27;42453;-84
2022/02/05 09:58:50;;;;;;;2.90;1.33;;;;;;;8.97;61.15;99598.75;5117155;27;41138;-84
2022/02/05 10:01:21;;;;;;;1.37;1.20;;;;;;;9.20;60.65;99594.22;5096880;27;41650;-85
2022/02/05 10:03:50;;;;;;;2.13;1.70;;;;;;;9.25;59.70;99594.88;5110308;27;42869;-83
2022/02/05 10:06:24;;;;;;;1.33;1.23;;;;;;;9.35;59.52;99596.16;5130089;27;43158;-85
2022/02/05 10:08:58;;;;;;;1.60;1.30;;;;;;;9.36;58.96;99596.09;5114277;27;39032;-84
2022/02/05 10:11:29;;;;;;;1.47;1.37;;;;;;;10.04;58.02;99599.06;5103188;27;40588;-85
2022/02/05 10:13:57;;;;;;;2.00;1.50;;;;;;;10.49;55.90;99613.66;5138097;27;42987;-84
2022/02/05 10:16:31;;;;;;;1.77;1.57;;;;;;;10.52;56.14;99626.72;5101579;27;41115;-84
2022/02/05 10:19:00;;;;;;;2.77;1.60;;;;;;;10.37;55.73;99639.81;5114257;27;41845;-86
2022/02/05 10:21:31;;;;;;;1.97;1.60;;;;;;;10.15;56.06;99628.50;5109375;27;40755;-84
2022/02/05 10:24:02;;;;;;;3.13;1.53;;;;;;;10.12;56.11;99622.53;5102490;27;41833;-85
2022/02/05 10:26:31;;;;;;;2.03;1.70;;;;;;;10.11;56.73;99645.50;5119628;27;41909;-84
2022/02/05 10:29:03;;;;;;;1.53;1.40;;;;;;;9.94;56.13;99645.41;5117255;27;39934;-83
2022/02/05 10:31:52;;;;;;;2.03;1.90;;;;;;;9.77;56.67;99648.03;5112354;27;41112;-85
2022/02/05 10:34:20;;;;;;;1.07;1.00;;;;;;;9.82;57.27;99614.25;5086863;28;43308;-85
2022/02/05 10:37:07;;;;;;;2.93;1.50;;;;;;;10.12;56.95;99623.38;5109365;27;42006;-86
2022/02/05 10:39:52;;;;;;;1.87;1.27;;;;;;;11.32;54.24;99632.31;5111745;27;38936;-86
2022/02/05 10:45:08;;;;;;;1.30;1.00;;;;;;;14.25;46.81;99667.25;5093996;27;41525;-85
2022/02/05 10:47:55;;;;;;;1.53;0.90;;;;;;;16.23;42.09;99713.25;5112856;27;42192;-87
2022/02/05 10:50:26;;;;;;;2.83;1.00;;;;;;;19.03;38.88;99726.25;5090592;27;39041;-84
2022/02/05 10:53:00;;;;;;;2.20;0.90;;;;;;;18.73;37.14;99715.38;5096819;27;41820;-87
2022/02/05 10:55:46;;;;;;;1.27;1.03;;;;;;;20.72;35.36;99725.78;5126862;27;43611;-84
2022/02/05 10:58:28;;;;;;;3.00;1.40;;;;;;;22.49;33.38;99736.06;5090251;27;43752;-84
2022/02/05 11:06:34;;;;;;;2.00;1.60;;;;;;;23.59;28.85;99739.41;5094790;27;41590;-83
2022/02/05 11:09:04;;;;;;;2.53;1.70;;;;;;;21.46;32.37;99711.78;5095821;27;42694;-86
2022/02/05 11:19:59;;;;;;;1.93;1.23;;;;;;;17.67;35.80;99687.31;5068048;27;42526;-84
2022/02/05 11:22:30;;;;;;;1.30;1.20;;;;;;;16.32;37.62;99690.38;5094508;27;38413;-86
2022/02/05 11:25:01;;;;;;;1.60;1.20;;;;;;;15.40;39.94;99664.81;5091192;27;42991;-85
2022/02/05 11:27:29;;;;;;;3.23;1.80;;;;;;;14.69;41.30;99640.41;5092100;27;41669;-86
2022/02/05 11:29:57;;;;;;;1.50;1.20;;;;;;;14.17;42.33;99643.78;5091113;27;40989;-86
2022/02/05 11:32:31;;;;;;;1.40;1.30;;;;;;;13.82;43.41;99638.06;5091599;27;38990;-86
2022/02/05 11:35:12;;;;;;;2.03;1.43;;;;;;;13.60;44.09;99637.66;5105102;27;41620;-87
2022/02/05 11:37:54;;;;;;;4.13;1.73;;;;;;;13.67;44.67;99617.72;5091189;27;41435;-87
2022/02/05 11:40:53;;;;;;;1.67;1.23;;;;;;;13.78;43.43;99641.84;5085123;27;42563;-87
2022/02/05 11:43:23;;;;;;;3.67;1.27;;;;;;;15.00;43.29;99639.16;5078885;27;39878;-85
2022/02/05 11:46:12;;;;;;;1.33;1.17;;;;;;;17.55;38.77;99671.19;5089005;27;42586;-86
2022/02/05 11:48:55;;;;;;;0.93;0.80;;;;;;;19.82;34.89;99695.28;5114198;27;43237;-86
2022/02/05 11:51:24;;;;;;;1.10;1.00;;;;;;;18.64;33.23;99706.25;5085477;27;43195;-88
2022/02/05 11:54:07;;;;;;;1.00;0.90;;;;;;;17.77;34.12;99699.84;5092974;27;39471;-87
2022/02/05 11:56:50;;;;;;;1.13;0.97;;;;;;;16.48;35.42;99704.31;5111706;27;41123;-86
2022/02/05 11:59:20;;;;;;;2.23;1.13;;;;;;;15.25;37.59;99667.69;5093613;27;42766;-85
2022/02/05 12:01:49;;;;;;;1.43;1.10;;;;;;;17.22;36.16;99696.06;5096070;27;42537;-87
2022/02/05 12:04:20;;;;;;;3.37;1.57;;;;;;;19.44;34.15;99700.41;5093260;27;39803;-86
2022/02/05 12:06:50;;;;;;;2.80;1.10;;;;;;;22.43;30.06;99715.03;5090216;27;40965;-88
2022/02/05 12:09:38;;;;;;;1.33;1.13;;;;;;;24.57;26.24;99736.28;5106939;27;41973;-86
2022/02/05 12:12:39;;;;;;;1.57;1.00;;;;;;;25.49;25.20;99742.53;5106426;27;41947;-88
2022/02/05 12:15:26;;;;;;;1.43;1.10;;;;;;;24.58;25.93;99729.84;5089932;27;39910;-89
2022/02/05 12:18:15;;;;;;;1.87;1.30;;;;;;;22.97;26.51;99733.06;5110319;27;41879;-89
2022/02/05 12:21:11;;;;;;;2.47;1.17;;;;;;;20.78;29.61;99711.75;5106767;27;42893;-87
2022/02/05 12:27:01;;;;;;;1.83;1.17;;;;;;;20.07;30.09;99696.66;5107686;27;39925;-88
2022/02/05 12:29:34;;;;;;;2.33;1.43;;;;;;;22.30;28.32;99711.84;5086120;27;42483;-87
2022/02/05 12:32:02;;;;;;;1.37;1.00;;;;;;;24.62;26.88;99708.66;5099083;27;43164;-88
2022/02/05 12:34:35;;;;;;;1.20;1.10;;;;;;;25.13;24.97;99720.31;5087591;28;42500;-90
2022/02/05 12:37:03;;;;;;;1.30;1.10;;;;;;;25.79;24.64;99712.03;5119829;27;39988;-89
2022/02/05 12:39:34;;;;;;;3.33;1.37;;;;;;;24.92;23.87;99718.06;5116095;27;40613;-87
2022/02/05 12:42:06;;;;;;;1.73;1.37;;;;;;;22.93;25.68;99708.19;5100482;28;41704;-88
2022/02/05 12:44:39;;;;;;;1.07;0.80;;;;;;;21.00;28.02;99705.28;5095138;28;41674;-86
2022/02/05 12:47:12;;;;;;;1.40;0.93;;;;;;;19.92;29.34;99680.03;5098408;27;39653;-85
2022/02/05 12:49:48;;;;;;;3.13;1.10;;;;;;;18.54;30.33;99678.44;5097268;27;43457;-86
2022/02/05 12:52:16;;;;;;;3.00;1.07;;;;;;;17.31;32.43;99675.75;5098234;27;41780;-85
2022/02/05 12:54:49;;;;;;;1.33;1.20;;;;;;;16.40;34.52;99666.59;5098146;27;41154;-86
2022/02/05 12:57:19;;;;;;;1.37;1.10;;;;;;;15.45;35.47;99617.28;5098266;27;39041;-88
2022/02/05 12:59:50;;;;;;;1.77;1.10;;;;;;;15.33;35.75;99623.50;5105015;28;41503;-86
2022/02/05 13:02:21;;;;;;;2.13;1.20;;;;;;;14.88;36.90;99624.00;5096401;27;41933;-85
2022/02/05 13:04:51;;;;;;;1.57;1.00;;;;;;;14.28;37.81;99603.13;5097859;27;42555;-84
2022/02/05 13:07:21;;;;;;;0.73;0.73;;;;;;;13.83;38.79;99598.97;5114683;27;40161;-84
2022/02/05 13:09:53;;;;;;;1.00;1.00;;;;;;;13.41;39.59;99589.22;5097696;27;40768;-83
2022/02/05 13:12:24;;;;;;;1.30;1.20;;;;;;;12.96;40.06;99583.09;5097233;27;43426;-86
2022/02/05 13:15:00;;;;;;;4.13;1.30;;;;;;;12.64;40.70;99581.50;5112363;27;41170;-85
2022/02/05 13:17:35;;;;;;;2.33;1.33;;;;;;;12.29;41.52;99560.53;5114648;27;40246;-85
2022/02/05 13:25:52;;;;;;;2.90;1.83;;;;;;;11.64;43.50;99559.78;5077447;28;41267;-85
2022/02/05 13:34:16;;;;;;;1.23;1.00;;;;;;;11.42;44.28;99561.91;5091612;28;38829;-84
2022/02/05 13:36:52;;;;;;;1.53;1.23;;;;;;;11.40;44.73;99548.72;5091531;28;40941;-84
2022/02/05 13:39:34;;;;;;;1.70;1.60;;;;;;;11.37;44.77;99537.44;5091242;28;42221;-86
2022/02/05 13:42:08;;;;;;;1.90;1.00;;;;;;;11.75;44.94;99544.13;5091389;28;41299;-84
2022/02/05 13:44:54;;;;;;;2.77;1.30;;;;;;;11.92;43.80;99555.63;5091011;28;38986;-86
2022/02/05 13:47:24;;;;;;;1.00;0.90;;;;;;;11.88;44.04;99531.91;5091705;28;40785;-85
2022/02/05 13:50:04;;;;;;;1.23;1.13;;;;;;;12.16;43.87;99551.56;5086634;28;41555;-84
2022/02/05 13:52:34;;;;;;;1.83;1.00;;;;;;;12.19;44.18;99527.47;5090171;28;40872;-84
2022/02/05 13:55:14;;;;;;;1.93;1.27;;;;;;;12.29;43.90;99549.91;5106889;28;39583;-84
2022/02/05 13:57:56;;;;;;;1.17;0.83;;;;;;;12.35;43.22;99540.72;5108232;28;41617;-88
2022/02/05 14:00:36;;;;;;;2.73;1.43;;;;;;;12.49;43.56;99556.69;5107702;28;42041;-86
2022/02/05 14:03:08;;;;;;;1.50;1.40;;;;;;;12.41;43.20;99521.75;5091403;28;41054;-87
2022/02/05 14:05:37;;;;;;;2.33;1.20;;;;;;;12.45;43.24;99545.41;5090323;28;40667;-85
2022/02/05 14:08:05;;;;;;;1.70;1.00;;;;;;;12.27;43.37;99545.63;5091162;28;43126;-84
2022/02/05 14:10:34;;;;;;;1.33;1.00;;;;;;;11.82;43.45;99532.25;5090315;28;43007;-87
2022/02/05 14:13:02;;;;;;;1.73;1.10;;;;;;;11.54;44.16;99534.72;5091070;28;42189;-87
2022/02/05 14:15:49;;;;;;;1.83;1.20;;;;;;;11.26;44.85;99539.81;5089891;28;38676;-86
2022/02/05 14:18:18;;;;;;;2.93;1.60;;;;;;;10.90;45.51;99511.69;5090903;28;42980;-87
2022/02/05 14:20:50;;;;;;;1.27;0.90;;;;;;;10.69;46.50;99500.44;5090011;28;42838;-85
2022/02/05 14:23:20;;;;;;;1.60;1.30;;;;;;;10.47;46.36;99491.91;5090189;28;41904;-89
2022/02/05 14:25:51;;;;;;;1.30;0.90;;;;;;;10.58;46.77;99499.31;5106443;28;41629;-87
2022/02/05 14:28:29;;;;;;;1.73;0.90;;;;;;;10.61;46.71;99517.69;5092018;27;41977;-86
2022/02/05 14:31:06;;;;;;;1.90;1.17;;;;;;;10.46;46.74;99515.81;5112311;27;42498;-86
2022/02/05 14:33:45;;;;;;;1.53;0.97;;;;;;;10.43;47.50;99517.69;5081081;28;41031;-85
2022/02/05 14:36:35;;;;;;;1.70;1.17;;;;;;;10.20;48.02;99472.16;5086275;28;39742;-85
2022/02/05 14:41:50;;;;;;;3.33;0.97;;;;;;;10.33;48.38;99497.91;5061844;28;41642;-83
2022/02/05 14:44:18;;;;;;;1.90;1.23;;;;;;;10.24;48.51;99490.47;5074677;28;42129;-84
2022/02/05 14:46:46;;;;;;;1.43;1.30;;;;;;;10.13;48.74;99490.13;5076489;28;38812;-82
2022/02/05 14:49:15;;;;;;;2.33;0.90;;;;;;;10.09;48.92;99488.56;5093170;28;41386;-84
2022/02/05 14:51:45;;;;;;;1.43;1.27;;;;;;;9.99;49.75;99490.81;5093779;28;42962;-88
2022/02/05 14:54:13;;;;;;;2.10;1.40;;;;;;;9.87;49.79;99472.03;5076402;28;42167;-86
2022/02/05 14:56:41;;;;;;;5.13;1.87;;;;;;;9.83;49.85;99479.25;5093782;28;39217;-86
2022/02/05 14:59:09;;;;;;;1.47;1.13;;;;;;;9.72;50.91;99473.66;5067357;28;40660;-85
2022/02/05 15:01:37;;;;;;;3.13;1.33;;;;;;;9.70;50.45;99463.16;5075549;28;41846;-83
2022/02/05 15:04:06;;;;;;;1.20;1.10;;;;;;;9.75;50.68;99491.16;5092360;28;44413;-83
2022/02/05 15:06:36;;;;;;;3.97;1.00;;;;;;;9.62;51.31;99470.59;5094468;28;40008;-82
2022/02/05 15:09:06;;;;;;;4.40;1.40;;;;;;;9.56;51.20;99473.53;5094579;28;41511;-83
2022/02/05 15:11:35;;;;;;;3.67;1.20;;;;;;;9.44;51.70;99452.97;5083990;28;42722;-81
2022/02/05 15:14:03;;;;;;;1.73;0.90;;;;;;;9.41;52.08;99447.81;5076375;28;41256;-82
2022/02/05 15:16:33;;;;;;;2.87;1.10;;;;;;;9.31;52.91;99441.28;5076296;28;39951;-83
2022/02/05 15:19:01;;;;;;;1.30;1.20;;;;;;;9.33;52.72;99473.78;5076107;28;40637;-82
2022/02/05 15:21:31;;;;;;;1.20;1.10;;;;;;;9.11;53.18;99452.81;5092600;28;43223;-82
2022/02/05 15:24:00;;;;;;;6.43;1.00;;;;;;;9.08;54.17;99467.94;5076068;28;40575;-82
2022/02/05 15:26:32;;;;;;;2.13;1.20;;;;;;;9.01;54.32;99464.75;5075952;28;38793;-82
2022/02/05 15:29:00;;;;;;;1.90;1.17;;;;;;;8.92;55.43;99449.28;5075597;28;43096;-82
2022/02/05 15:31:28;;;;;;;0.90;0.90;;;;;;;8.89;55.30;99450.31;5090214;28;43120;-85
2022/02/05 15:33:58;;;;;;;1.20;1.10;;;;;;;8.77;55.83;99450.88;5089140;28;40868;-85
2022/02/05 15:36:31;;;;;;;4.80;1.20;;;;;;;8.76;55.81;99457.09;5113212;28;39945;-84
2022/02/05 15:44:36;;;;;;;2.60;1.30;;;;;;;8.46;57.99;99442.59;5095208;28;41224;-87
2022/02/05 15:47:05;;;;;;;1.93;1.27;;;;;;;8.23;58.49;99419.84;5088040;28;39069;-87
2022/02/05 15:49:32;;;;;;;2.90;1.37;;;;;;;8.13;59.19;99429.94;5074938;28;43106;-85
2022/02/05 15:52:00;;;;;;;3.57;1.00;;;;;;;8.17;60.06;99431.50;5072340;28;42930;-85
2022/02/05 15:54:31;;;;;;;1.03;0.90;;;;;;;8.05;59.61;99433.81;5054111;28;41573;-84
2022/02/05 15:57:04;;;;;;;3.50;1.37;;;;;;;8.04;60.38;99429.47;5056065;28;39198;-85
2022/02/05 15:59:51;;;;;;;1.40;1.00;;;;;;;7.81;61.02;99425.19;5069241;28;41945;-85
2022/02/05 16:02:18;;;;;;;3.77;1.27;;;;;;;7.70;61.14;99430.03;5092045;28;41838;-83
2022/02/05 16:04:46;;;;;;;2.30;1.20;;;;;;;7.67;61.11;99417.84;5091791;28;43616;-86
2022/02/05 16:07:14;;;;;;;2.83;1.13;;;;;;;7.70;61.17;99430.03;5070825;28;41321;-82
2022/02/05 16:09:43;;;;;;;4.00;1.67;;;;;;;7.69;61.45;99438.88;5090841;28;41075;-81
2022/02/05 16:12:11;;;;;;;5.90;1.90;;;;;;;7.63;61.86;99423.31;5074530;28;42190;-81
2022/02/05 16:14:39;;;;;;;3.37;1.87;;;;;;;7.45;62.23;99419.66;5074242;28;42412;-81
2022/02/05 16:17:07;;;;;;;2.03;1.20;;;;;;;7.21;63.18;99416.22;5075456;28;39132;-83
2022/02/05 16:19:35;;;;;;;3.87;1.67;;;;;;;7.07;63.14;99408.03;5073896;28;41321;-82
2022/02/05 16:22:03;;;;;;;5.10;1.17;;;;;;;6.96;63.78;99410.22;5074905;28;41537;-83
2022/02/05 16:24:33;;;;;;;3.40;1.50;;;;;;;6.84;63.86;99412.41;5073690;28;41156;-83
2022/02/05 16:27:02;;;;;;;3.80;1.63;;;;;;;6.79;63.75;99419.66;5076375;28;40170;-82
2022/02/05 16:29:30;;;;;;;5.43;1.20;;;;;;;6.70;63.96;99419.13;5076643;28;40329;-81
2022/02/05 16:31:58;;;;;;;2.70;1.00;;;;;;;6.69;64.34;99427.91;5100636;28;42733;-83
2022/02/05 16:34:29;;;;;;;1.37;1.17;;;;;;;6.73;64.40;99435.66;5078876;28;41119;-84
2022/02/05 16:36:59;;;;;;;1.37;1.00;;;;;;;6.82;64.66;99451.09;5104199;28;38836;-83
2022/02/05 16:39:30;;;;;;;1.20;1.10;;;;;;;6.68;64.42;99453.38;5081808;28;40227;-84
2022/02/05 16:41:58;;;;;;;2.97;1.30;;;;;;;6.61;64.63;99445.78;5099627;28;42969;-84
2022/02/05 16:44:27;;;;;;;1.57;0.70;;;;;;;6.67;64.94;99466.63;5072749;28;42586;-84
2022/02/05 16:46:56;;;;;;;1.70;1.30;;;;;;;6.57;64.68;99444.16;5074993;28;39162;-84
2022/02/05 16:49:26;;;;;;;3.17;1.40;;;;;;;6.56;64.42;99448.56;5068794;28;40866;-84
2022/02/05 16:51:53;;;;;;;2.77;1.60;;;;;;;6.59;64.77;99464.25;5068145;28;42811;-84
2022/02/05 16:54:22;;;;;;;0.93;0.80;;;;;;;6.40;64.87;99450.06;5084826;28;41093;-84
2022/02/05 16:56:51;;;;;;;1.97;1.00;;;;;;;6.35;65.29;99454.63;5070598;28;38471;-84
2022/02/05 16:59:19;;;;;;;2.53;1.03;;;;;;;6.32;65.41;99459.97;5087561;28;40716;-83
2022/02/05 17:01:48;;;;;;;1.60;1.00;;;;;;;6.39;65.71;99467.63;5091491;28;41877;-82
2022/02/05 17:04:18;;;;;;;2.10;1.17;;;;;;;6.25;65.78;99443.56;5091255;28;42191;-84
2022/02/05 17:06:46;;;;;;;1.50;1.40;;;;;;;6.20;65.65;99449.91;5091776;28;39087;-81
2022/02/05 17:09:15;;;;;;;3.30;0.90;;;;;;;6.22;65.86;99466.47;5087131;28;41689;-85
2022/02/05 17:11:42;;;;;;;1.37;1.00;;;;;;;6.04;66.87;99442.56;5068579;28;43203;-84
2022/02/05 17:14:10;;;;;;;1.17;1.07;;;;;;;6.01;67.03;99447.94;5066119;28;43452;-84
2022/02/05 17:16:38;;;;;;;2.23;1.03;;;;;;;6.02;67.21;99462.78;5091371;28;39385;-86
2022/02/05 17:19:07;;;;;;;2.33;0.97;;;;;;;5.87;67.71;99447.50;5073686;28;40643;-86
2022/02/05 17:21:35;;;;;;;1.77;1.10;;;;;;;5.80;67.35;99451.25;5054049;28;42160;-86
2022/02/05 17:24:03;;;;;;;3.00;0.90;;;;;;;5.68;67.79;99436.78;5054302;28;41224;-84
2022/02/05 17:26:31;;;;;;;3.00;1.50;;;;;;;5.62;68.88;99429.06;5070630;28;38972;-85
2022/02/05 17:28:59;;;;;;;1.87;1.07;;;;;;;5.62;69.21;99441.34;5053756;28;40692;-85
2022/02/05 17:31:26;;;;;;;3.53;1.27;;;;;;;5.58;69.36;99444.97;5089264;28;43820;-86
2022/02/05 17:33:56;;;;;;;1.80;1.10;;;;;;;5.49;69.94;99433.00;5073552;28;41244;-86
2022/02/05 17:36:26;;;;;;;1.73;1.30;;;;;;;5.45;69.95;99441.88;5073693;28;38595;-87
2022/02/05 17:38:54;;;;;;;5.07;1.40;;;;;;;5.40;69.99;99442.06;5074285;28;41608;-86
2022/02/05 17:41:23;;;;;;;3.87;1.40;;;;;;;5.47;70.66;99457.59;5073205;28;42888;-83
2022/02/05 17:43:51;;;;;;;2.83;1.50;;;;;;;5.32;70.63;99444.06;5090663;28;42376;-83
2022/02/05 17:46:19;;;;;;;2.63;1.20;;;;;;;5.34;70.79;99447.50;5073416;28;39947;-85
2022/02/05 17:48:47;;;;;;;3.40;1.20;;;;;;;5.26;71.09;99439.00;5091499;28;41582;-86
2022/02/05 17:51:15;;;;;;;1.70;1.20;;;;;;;5.22;70.95;99441.78;5070058;28;41971;-85
2022/02/05 17:53:44;;;;;;;1.07;0.97;;;;;;;5.19;70.78;99442.75;5070015;28;43684;-85
2022/02/05 17:56:11;;;;;;;2.43;1.63;;;;;;;5.18;71.13;99445.41;5070217;28;40106;-84
2022/02/05 17:58:41;;;;;;;2.10;1.87;;;;;;;5.20;71.72;99449.69;5073980;28;40593;-84
2022/02/05 18:01:12;;;;;;;1.47;1.10;;;;;;;5.19;71.83;99449.75;5091205;28;43001;-84
2022/02/05 18:03:41;;;;;;;1.33;0.93;;;;;;;5.13;71.88;99448.19;5087853;28;42242;-86
2022/02/05 18:06:12;;;;;;;1.77;1.10;;;;;;;5.01;71.87;99427.56;5090329;28;39305;-85
2022/02/05 18:08:49;;;;;;;1.87;1.53;;;;;;;5.13;71.20;99453.44;5108574;28;42501;-83
2022/02/05 18:11:21;;;;;;;1.40;0.90;;;;;;;5.09;71.96;99451.78;5089354;28;42707;-83
2022/02/05 18:14:10;;;;;;;1.40;1.27;;;;;;;4.97;71.83;99441.66;5070787;28;41615;-82
2022/02/05 18:16:38;;;;;;;1.47;0.80;;;;;;;4.95;72.38;99436.47;5057795;28;39847;-83
2022/02/05 18:19:06;;;;;;;1.27;1.17;;;;;;;5.07;71.94;99458.84;5076858;28;40896;-83
2022/02/05 18:21:33;;;;;;;4.33;1.00;;;;;;;4.93;72.03;99434.81;5064622;28;42861;-83
2022/02/05 18:24:02;;;;;;;0.80;0.80;;;;;;;5.08;71.93;99460.56;5056999;28;40987;-82
2022/02/05 18:26:32;;;;;;;1.53;0.80;;;;;;;5.07;72.12;99448.34;5093383;28;40122;-82
2022/02/05 18:28:59;;;;;;;1.20;1.00;;;;;;;4.95;72.35;99438.22;5056464;28;41966;-83
2022/02/05 18:31:27;;;;;;;5.03;1.30;;;;;;;4.90;72.44;99434.91;5075525;28;41737;-82
2022/02/05 18:33:55;;;;;;;0.97;0.97;;;;;;;4.91;72.02;99444.50;5093795;28;42280;-82
2022/02/05 18:36:22;;;;;;;1.20;0.80;;;;;;;4.90;71.79;99440.16;5093500;28;40156;-82
2022/02/05 18:38:50;;;;;;;5.07;1.30;;;;;;;4.90;71.93;99442.78;5095170;28;41524;-82
2022/02/05 18:41:25;;;;;;;2.17;1.03;;;;;;;5.00;72.26;99457.34;5076162;28;42178;-83
2022/02/05 18:43:56;;;;;;;4.13;1.30;;;;;;;5.00;72.18;99454.72;5093666;28;41291;-82
2022/02/05 18:46:24;;;;;;;2.60;1.50;;;;;;;4.98;72.25;99451.25;5091382;28;41023;-82
2022/02/05 18:48:52;;;;;;;1.97;1.27;;;;;;;4.93;72.16;99455.81;5093813;28;41956;-82
2022/02/05 18:51:19;;;;;;;1.17;1.00;;;;;;;4.88;71.87;99452.44;5092916;28;43727;-82
2022/02/05 18:53:50;;;;;;;1.27;1.00;;;;;;;4.76;72.71;99429.19;5090434;28;42010;-83
2022/02/05 18:56:20;;;;;;;1.60;1.10;;;;;;;4.85;72.34;99447.28;5093377;28;40012;-82
2022/02/05 18:58:48;;;;;;;1.97;1.50;;;;;;;4.87;73.16;99446.34;5076576;28;40679;-82
2022/02/05 19:01:24;;;;;;;1.03;0.93;;;;;;;4.86;72.88;99444.63;5075835;28;44736;-82
2022/02/05 19:12:34;;;;;;;1.63;1.50;;;;;;;4.55;72.93;99418.44;5078679;28;41860;-82
2022/02/05 19:18:21;;;;;;;1.87;0.97;;;;;;;4.54;73.20;99442.97;5058762;28;38677;-83
2022/02/05 19:20:51;;;;;;;1.40;1.13;;;;;;;4.42;73.68;99426.72;5072941;28;42816;-83
2022/02/05 19:23:21;;;;;;;2.03;0.90;;;;;;;4.47;73.60;99436.16;5074798;28;43116;-82
2022/02/05 19:25:50;;;;;;;1.80;1.10;;;;;;;4.45;73.65;99432.72;5072195;28;43675;-84
2022/02/05 19:28:20;;;;;;;1.73;1.20;;;;;;;4.35;73.92;99426.00;5091144;28;38948;-82
2022/02/05 19:30:47;;;;;;;1.10;1.10;;;;;;;4.40;73.60;99434.63;5092769;28;42220;-82
2022/02/05 19:33:17;;;;;;;1.30;1.20;;;;;;;4.27;74.04;99413.13;5073724;28;43045;-83
2022/02/05 19:35:45;;;;;;;4.10;1.93;;;;;;;4.17;74.26;99405.56;5093024;28;42101;-83
2022/02/05 19:38:13;;;;;;;1.43;1.20;;;;;;;3.97;73.94;99379.91;5093118;28;38986;-83
2022/02/05 19:40:42;;;;;;;1.60;1.10;;;;;;;4.34;74.14;99432.16;5075941;28;40409;-82
2022/02/05 19:43:14;;;;;;;4.50;1.20;;;;;;;4.33;73.95;99441.78;5092333;28;42644;-83
2022/02/05 19:45:45;;;;;;;1.90;1.20;;;;;;;4.30;74.01;99434.03;5072306;28;41576;-83
2022/02/05 19:48:13;;;;;;;1.97;1.27;;;;;;;4.25;74.35;99416.69;5055720;28;39194;-83
2022/02/05 19:50:44;;;;;;;5.33;1.70;;;;;;;4.25;73.93;99429.81;5084211;28;43279;-83
2022/02/05 19:53:13;;;;;;;2.10;1.37;;;;;;;4.24;74.12;99428.06;5075710;28;41839;-83
2022/02/05 19:55:41;;;;;;;1.73;1.10;;;;;;;4.11;74.26;99410.97;5075598;28;41063;-82
2022/02/05 19:58:08;;;;;;;3.57;1.27;;;;;;;4.11;74.18;99410.97;5074559;28;40008;-83
2022/02/05 20:00:36;;;;;;;2.50;1.20;;;;;;;4.17;74.41;99424.78;5068031;28;40953;-82
2022/02/05 20:03:06;;;;;;;2.30;1.43;;;;;;;4.05;74.60;99414.63;5075111;28;43077;-83
2022/02/05 20:05:43;;;;;;;1.17;1.03;;;;;;;4.13;74.31;99424.91;5092311;28;42213;-83
2022/02/05 20:08:22;;;;;;;1.40;1.30;;;;;;;4.08;74.48;99419.75;5092804;28;39422;-82
2022/02/05 20:10:51;;;;;;;1.17;1.07;;;;;;;4.15;74.16;99423.09;5076207;28;41779;-83
2022/02/05 20:13:18;;;;;;;3.50;1.30;;;;;;;4.15;74.28;99423.09;5092170;28;42771;-82
2022/02/05 20:15:52;;;;;;;4.70;1.23;;;;;;;4.22;74.19;99424.63;5092139;28;42157;-82
2022/02/05 20:18:21;;;;;;;1.40;1.30;;;;;;;4.23;74.21;99424.59;5075354;28;39756;-82
2022/02/05 20:20:48;;;;;;;1.67;1.40;;;;;;;4.23;74.13;99415.88;5075497;28;40832;-83
2022/02/05 20:23:18;;;;;;;1.70;1.17;;;;;;;4.27;73.93;99420.13;5073933;28;42203;-83
2022/02/05 20:25:51;;;;;;;4.00;1.13;;;;;;;4.27;73.83;99401.78;5075112;28;42069;-83
2022/02/05 20:28:19;;;;;;;3.27;1.00;;;;;;;4.46;73.88;99428.31;5089436;28;40611;-82
2022/02/05 20:30:51;;;;;;;1.17;1.00;;;;;;;4.53;73.46;99422.88;5074453;28;40611;-82
2022/02/05 20:33:22;;;;;;;1.50;0.97;;;;;;;4.57;73.39;99427.13;5075135;28;41568;-83
2022/02/05 20:35:50;;;;;;;3.73;1.20;;;;;;;4.47;73.23;99399.44;5075123;28;42192;-83
2022/02/05 20:38:19;;;;;;;1.20;0.90;;;;;;;4.48;73.17;99406.41;5075264;28;39077;-83
2022/02/05 20:40:47;;;;;;;1.47;1.00;;;;;;;4.29;73.33;99392.13;5073980;28;42913;-83
2022/02/05 20:43:15;;;;;;;1.23;0.90;;;;;;;4.27;73.52;99376.44;5075099;28;42011;-83
2022/02/05 20:45:43;;;;;;;6.07;1.23;;;;;;;4.35;73.23;99394.53;5092140;28;42101;-82
2022/02/05 20:48:10;;;;;;;1.83;1.20;;;;;;;4.29;73.42;99389.50;5090949;28;39010;-82
2022/02/05 20:50:40;;;;;;;1.47;1.37;;;;;;;4.14;73.39;99363.72;5091888;28;40644;-84
2022/02/05 20:53:10;;;;;;;2.40;1.00;;;;;;;4.34;73.53;99382.34;5074934;28;44571;-82
2022/02/05 20:55:41;;;;;;;2.67;1.07;;;;;;;4.35;73.40;99389.31;5075386;28;41593;-82
2022/02/05 20:58:09;;;;;;;5.93;1.53;;;;;;;4.33;73.77;99386.72;5073088;28;39786;-82
2022/02/05 21:00:40;;;;;;;2.83;1.73;;;;;;;4.31;73.63;99380.69;5070989;28;41680;-82
2022/02/05 21:03:07;;;;;;;2.63;0.97;;;;;;;4.29;73.58;99363.28;5069607;28;43616;-84
2022/02/05 21:05:35;;;;;;;3.53;1.10;;;;;;;4.22;74.04;99351.22;5075946;28;41154;-84
2022/02/05 21:08:03;;;;;;;1.93;1.23;;;;;;;4.18;74.33;99347.88;5091410;28;40008;-82
2022/02/05 21:10:31;;;;;;;0.80;0.80;;;;;;;4.21;74.17;99353.00;5091804;28;41656;-82
2022/02/05 21:13:00;;;;;;;1.53;1.27;;;;;;;4.13;74.71;99341.03;5074941;28;42744;-81
2022/02/05 21:15:27;;;;;;;1.23;0.90;;;;;;;4.17;74.55;99353.16;5074419;28;43417;-82
2022/02/05 21:17:55;;;;;;;1.33;0.90;;;;;;;4.16;74.42;99351.41;5091852;28;38963;-81
2022/02/05 21:20:23;;;;;;;3.90;1.27;;;;;;;4.25;74.42;99372.97;5091163;28;41789;-81
2022/02/05 21:22:56;;;;;;;2.80;1.07;;;;;;;4.15;74.61;99353.19;5067060;28;41797;-83
2022/02/05 21:25:24;;;;;;;2.47;1.57;;;;;;;4.19;74.47;99362.69;5090003;28;42205;-82
2022/02/05 21:27:55;;;;;;;1.27;1.17;;;;;;;4.19;74.69;99362.69;5075122;28;39112;-83
2022/02/05 21:30:29;;;;;;;1.60;0.90;;;;;;;4.22;75.08;99361.72;5074364;28;40765;-84
2022/02/05 21:33:03;;;;;;;1.40;1.07;;;;;;;4.19;75.37;99356.59;5074875;28;42521;-83
2022/02/05 21:35:31;;;;;;;1.27;1.17;;;;;;;4.18;75.32;99365.34;5074358;28;41128;-83
2022/02/05 21:37:59;;;;;;;3.67;1.27;;;;;;;4.15;75.63;99360.19;5091807;28;39978;-82
2022/02/05 21:40:27;;;;;;;1.23;0.90;;;;;;;3.96;75.98;99331.88;5090916;28;41866;-82
2022/02/05 21:42:55;;;;;;;1.77;0.90;;;;;;;4.12;75.60;99363.75;5091516;28;42895;-83
2022/02/05 21:45:24;;;;;;;1.07;0.67;;;;;;;4.12;75.67;99344.53;5090873;28;41002;-83
2022/02/05 21:47:52;;;;;;;4.70;1.50;;;;;;;4.12;76.13;99349.78;5090286;28;39895;-82
2022/02/05 21:50:19;;;;;;;0.80;0.80;;;;;;;4.05;76.64;99343.00;5090663;28;41700;-82
2022/02/05 21:52:53;;;;;;;3.00;1.00;;;;;;;4.15;76.07;99349.72;5076620;28;42331;-82
2022/02/05 21:55:25;;;;;;;2.30;0.83;;;;;;;4.08;76.13;99343.75;5077452;28;41117;-83
2022/02/05 21:57:58;;;;;;;0.73;0.73;;;;;;;4.24;75.60;99365.16;5094622;28;39682;-83
2022/02/05 22:00:31;;;;;;;0.80;0.80;;;;;;;4.26;75.76;99363.34;5077337;28;40867;-82
2022/02/05 22:03:04;;;;;;;1.63;0.97;;;;;;;4.26;75.53;99347.63;5077378;28;43618;-82
2022/02/05 22:05:31;;;;;;;4.87;0.90;;;;;;;4.21;75.51;99350.38;5077148;28;42181;-82